Gig Harbor, Washington
Current Conditions -  °F | °C
As of 12:53 AM on Monday 24 Nov 2014 (Local Time) from KTIW Reporting Station
Clear Clear  
Wind Chill: 40°   Ceiling: Unl
Heat Index: 43°   Visibility: 10mi
Dew Point: 41°   Wind: 5mph
Humidity: 93%   Direction: 180°S
Pressure: 30.37"   Gusts: NA
Location:  47.33°N, 122.59°W
Report Text: KTIW 240853Z AUTO 18004KT 10SM CLR 06/05 A3037 RMK AO2 SLP284 T00610050 51020
Loading
Personal Weather Stations






























Interactive Weather Map New forecast layout! Learn more

10-Day Weather Forecast

Advertisements
Track Severe Weather on mobile